Time;durP1;ratioP1;P1;durP2;ratioP2;P2;SDS_P1;SDS_P2;PMS_P1;PMS_P2;Temp;Humidity;BMP_temperature;BMP_pressure;BME280_temperature;BME280_humidity;BME280_pressure;Samples;Min_cycle;Max_cycle;Signal;HPM_P1;HPM_P2
2023/09/23 00:00:35;;;;;;;14.33;8.30;;;;;;;24.56;51.16;95153.84;6220214;28;109186;-62
2023/09/23 00:03:39;;;;;;;12.53;7.70;;;;;;;24.53;51.21;95157.13;6221390;27;109062;-62
2023/09/23 00:06:42;;;;;;;14.07;10.10;;;;;;;24.50;51.33;95161.22;6231148;27;109333;-62
2023/09/23 00:09:45;;;;;;;14.48;8.98;;;;;;;24.56;50.98;95154.63;6232078;28;109609;-62
2023/09/23 00:12:50;;;;;;;14.35;10.07;;;;;;;24.51;51.37;95152.09;6232633;27;109301;-62
2023/09/23 00:15:55;;;;;;;10.88;7.85;;;;;;;24.56;51.11;95165.31;6221469;28;109256;-61
2023/09/23 00:18:59;;;;;;;11.40;8.20;;;;;;;24.46;51.34;95150.38;6234917;27;109309;-62
2023/09/23 00:22:02;;;;;;;17.23;13.70;;;;;;;24.37;51.55;95148.84;6232445;27;110267;-62
2023/09/23 00:25:07;;;;;;;20.02;16.45;;;;;;;24.31;51.67;95161.56;6231872;28;109113;-62
2023/09/23 00:28:12;;;;;;;18.27;14.90;;;;;;;24.34;51.63;95152.91;6221876;27;110026;-62
2023/09/23 00:31:16;;;;;;;16.67;12.80;;;;;;;24.44;51.08;95155.28;6231290;27;110199;-64
2023/09/23 00:34:19;;;;;;;23.67;21.15;;;;;;;24.37;51.69;95157.66;6231334;28;109157;-66
2023/09/23 00:37:22;;;;;;;21.20;17.60;;;;;;;24.30;51.96;95156.53;6226640;27;109567;-64
2023/09/23 00:40:29;;;;;;;18.33;15.20;;;;;;;24.38;51.50;95147.75;6225703;28;109247;-65
2023/09/23 00:43:34;;;;;;;15.75;11.43;;;;;;;24.35;51.54;95143.78;6232064;27;110251;-65
2023/09/23 00:46:38;;;;;;;17.83;11.18;;;;;;;24.40;51.20;95146.31;6231861;27;109425;-64
2023/09/23 00:49:45;;;;;;;17.42;13.10;;;;;;;24.30;51.57;95149.31;6222849;27;110403;-65
2023/09/23 00:52:51;;;;;;;15.20;9.73;;;;;;;24.30;51.50;95145.84;6235598;27;109226;-66
2023/09/23 00:55:55;;;;;;;14.70;9.73;;;;;;;24.37;51.36;95148.84;6235711;28;108999;-65
2023/09/23 00:59:00;;;;;;;16.75;11.15;;;;;;;24.44;51.46;95147.25;6235942;27;109084;-65
2023/09/23 01:02:03;;;;;;;12.82;10.10;;;;;;;24.46;51.25;95144.25;6223871;27;109115;-64
2023/09/23 01:05:08;;;;;;;16.10;9.85;;;;;;;24.43;51.23;95140.31;6233683;28;110155;-64
2023/09/23 01:08:25;;;;;;;12.82;8.82;;;;;;;24.44;50.67;95141.09;6235214;27;109420;-65
2023/09/23 01:11:30;;;;;;;13.13;10.70;;;;;;;24.42;50.88;95138.75;6220468;27;109053;-64
2023/09/23 01:14:34;;;;;;;19.70;15.40;;;;;;;24.35;51.01;95143.00;6229419;27;109420;-63
2023/09/23 01:17:38;;;;;;;15.63;12.20;;;;;;;24.35;51.22;95149.13;6236002;27;108867;-65
2023/09/23 01:20:43;;;;;;;13.95;8.50;;;;;;;24.35;51.11;95159.03;6235187;28;109205;-64
2023/09/23 01:23:47;;;;;;;14.15;10.90;;;;;;;24.38;51.02;95142.38;6225705;27;110677;-64
2023/09/23 01:26:51;;;;;;;23.50;18.38;;;;;;;24.31;51.40;95158.91;6237663;27;109045;-64
2023/09/23 01:29:54;;;;;;;22.35;16.98;;;;;;;24.36;51.12;95152.59;6260493;27;109228;-64
2023/09/23 01:32:57;;;;;;;17.13;14.27;;;;;;;24.30;50.87;95141.28;6237496;27;110531;-65
2023/09/23 01:36:03;;;;;;;17.67;13.82;;;;;;;24.34;50.71;95136.88;6224573;28;109980;-64
2023/09/23 01:39:08;;;;;;;17.23;11.80;;;;;;;24.37;50.64;95141.59;6218360;27;109861;-64
2023/09/23 01:42:11;;;;;;;19.92;16.38;;;;;;;24.30;51.06;95145.84;6235694;28;110285;-64
2023/09/23 01:45:14;;;;;;;15.25;11.57;;;;;;;24.30;51.05;95135.16;6234029;28;109206;-63
2023/09/23 01:48:19;;;;;;;15.50;9.40;;;;;;;24.33;50.71;95146.00;6225092;27;111877;-64
2023/09/23 01:51:22;;;;;;;13.25;8.73;;;;;;;24.36;50.28;95140.03;6234654;28;109126;-64
2023/09/23 01:54:27;;;;;;;14.75;12.10;;;;;;;24.38;50.23;95143.19;6235198;27;109121;-65
2023/09/23 01:57:30;;;;;;;15.55;9.77;;;;;;;24.35;50.35;95154.47;6223922;27;109365;-64
2023/09/23 02:00:34;;;;;;;12.63;8.23;;;;;;;24.33;50.10;95148.66;6232950;27;109236;-65
2023/09/23 02:03:38;;;;;;;19.83;14.40;;;;;;;24.27;50.34;95141.94;6233328;27;109242;-64
2023/09/23 02:06:43;;;;;;;16.27;12.18;;;;;;;24.31;50.18;95145.53;6209728;28;109299;-65
2023/09/23 02:09:48;;;;;;;14.17;8.97;;;;;;;24.33;50.07;95135.28;6207590;27;109151;-65
2023/09/23 02:12:51;;;;;;;17.52;7.75;;;;;;;24.15;50.26;95139.09;6233931;27;109117;-64
2023/09/23 02:15:55;;;;;;;15.93;8.10;;;;;;;24.19;49.93;95150.72;6234270;28;109415;-65
2023/09/23 02:18:58;;;;;;;15.13;9.07;;;;;;;24.28;49.88;95164.88;6233777;27;109219;-64
2023/09/23 02:22:05;;;;;;;17.73;12.80;;;;;;;24.09;50.90;95153.75;6223243;27;109255;-64
2023/09/23 02:25:11;;;;;;;18.13;12.05;;;;;;;24.03;50.68;95155.78;6234053;28;109203;-64
2023/09/23 02:28:15;;;;;;;17.80;14.60;;;;;;;23.91;51.09;95160.94;6233958;27;109132;-64
2023/09/23 02:31:19;;;;;;;16.33;10.60;;;;;;;23.89;51.14;95153.25;6214712;28;111053;-64
2023/09/23 02:34:22;;;;;;;18.00;16.08;;;;;;;23.88;51.20;95156.22;6228098;27;109036;-64
2023/09/23 02:37:27;;;;;;;11.30;9.45;;;;;;;23.74;51.62;95161.72;6234151;27;109255;-65
2023/09/23 02:40:31;;;;;;;14.73;9.60;;;;;;;23.89;51.12;95158.59;6233162;28;109136;-64
2023/09/23 02:43:35;;;;;;;12.13;7.93;;;;;;;23.80;51.31;95163.13;6222902;27;109250;-64
2023/09/23 02:46:38;;;;;;;14.43;7.90;;;;;;;23.93;50.92;95174.78;6233327;28;108720;-63
2023/09/23 02:49:44;;;;;;;15.02;8.80;;;;;;;23.93;51.25;95168.66;6242195;27;109023;-66
2023/09/23 02:52:48;;;;;;;18.23;13.27;;;;;;;23.84;51.35;95174.75;6240296;27;113582;-62
2023/09/23 02:56:06;;;;;;;13.60;10.30;;;;;;;23.99;50.92;95183.41;6240363;27;110697;-68
2023/09/23 02:59:13;;;;;;;12.07;8.02;;;;;;;23.89;50.78;95174.63;6233047;27;109390;-67
2023/09/23 03:02:23;;;;;;;11.95;7.60;;;;;;;23.97;50.82;95180.28;6233216;27;109398;-69
2023/09/23 03:05:29;;;;;;;13.57;8.05;;;;;;;23.87;51.14;95179.50;6226723;28;109094;-69
2023/09/23 03:08:37;;;;;;;14.15;8.35;;;;;;;23.90;50.69;95176.19;6230664;27;109373;-69
2023/09/23 03:11:49;;;;;;;12.18;7.82;;;;;;;23.88;50.65;95189.09;6232696;27;109162;-68
2023/09/23 03:14:52;;;;;;;10.05;7.30;;;;;;;23.84;50.64;95185.44;6211066;27;109236;-68
2023/09/23 03:18:00;;;;;;;12.87;7.60;;;;;;;23.79;50.45;95180.25;6220285;27;109544;-68
2023/09/23 03:21:07;;;;;;;16.77;7.30;;;;;;;23.92;50.52;95188.47;6233039;28;109450;-69
2023/09/23 03:24:11;;;;;;;12.80;7.03;;;;;;;23.98;50.20;95187.19;6249265;27;109489;-69
2023/09/23 03:27:16;;;;;;;14.38;7.80;;;;;;;24.00;50.07;95188.47;6238391;27;109049;-69
2023/09/23 03:30:20;;;;;;;12.43;7.10;;;;;;;24.05;49.70;95188.34;6217103;28;109848;-69
2023/09/23 03:33:23;;;;;;;13.57;7.70;;;;;;;24.07;50.02;95182.69;6232998;27;109293;-69
2023/09/23 03:36:26;;;;;;;12.68;7.10;;;;;;;24.11;49.79;95191.63;6220683;28;109254;-68
2023/09/23 03:39:30;;;;;;;13.45;7.40;;;;;;;24.09;49.81;95191.16;6219954;27;109146;-68
2023/09/23 03:42:34;;;;;;;11.47;6.40;;;;;;;24.10;49.60;95190.06;6228024;27;109282;-67
2023/09/23 03:45:38;;;;;;;12.73;7.35;;;;;;;24.06;49.64;95183.78;6232049;28;109244;-68
2023/09/23 03:48:43;;;;;;;11.57;7.05;;;;;;;24.03;49.99;95182.53;6232428;27;110244;-68
2023/09/23 03:51:47;;;;;;;14.63;7.40;;;;;;;24.03;49.72;95193.22;6222255;27;110790;-69
2023/09/23 03:54:51;;;;;;;15.07;7.35;;;;;;;23.84;49.89;95190.78;6232480;27;110218;-69
2023/09/23 03:57:55;;;;;;;13.15;7.05;;;;;;;23.85;49.91;95195.03;6232227;27;109322;-70
2023/09/23 04:01:03;;;;;;;13.23;6.80;;;;;;;23.80;49.58;95191.75;6231223;28;109123;-68
2023/09/23 04:04:10;;;;;;;12.82;7.15;;;;;;;23.59;50.35;95191.56;6216924;27;109610;-70
2023/09/23 04:07:16;;;;;;;14.40;7.10;;;;;;;23.55;50.06;95190.63;6231907;28;109859;-70
2023/09/23 04:10:23;;;;;;;12.57;6.68;;;;;;;23.43;50.25;95185.88;6232117;27;109217;-70
2023/09/23 04:13:27;;;;;;;14.23;7.38;;;;;;;23.47;50.02;95189.47;6226529;27;109152;-67
2023/09/23 04:16:33;;;;;;;16.63;9.90;;;;;;;23.38;50.67;95199.38;6227078;28;109521;-69
2023/09/23 04:19:36;;;;;;;15.63;8.30;;;;;;;23.40;50.71;95207.84;6232094;27;109078;-69
2023/09/23 04:22:41;;;;;;;18.48;8.18;;;;;;;23.60;49.83;95204.59;6231705;28;110103;-68
2023/09/23 04:25:44;;;;;;;19.10;8.60;;;;;;;23.71;49.93;95215.00;6226040;27;109147;-69
2023/09/23 04:28:51;;;;;;;14.52;8.55;;;;;;;23.87;49.83;95216.91;6233443;27;109411;-69
2023/09/23 04:31:56;;;;;;;14.82;9.30;;;;;;;23.97;49.43;95215.03;6235884;28;109258;-68
2023/09/23 04:34:59;;;;;;;16.30;13.35;;;;;;;23.97;49.53;95217.69;6236390;27;109215;-70
2023/09/23 04:38:03;;;;;;;14.38;10.43;;;;;;;24.04;49.62;95228.75;6210679;27;109969;-69
2023/09/23 04:41:06;;;;;;;16.10;10.68;;;;;;;24.13;49.57;95232.22;6252863;27;108736;-70
2023/09/23 04:44:12;;;;;;;30.38;27.25;;;;;;;24.12;49.22;95241.34;6236252;27;109878;-69
2023/09/23 04:47:17;;;;;;;20.85;18.67;;;;;;;24.06;49.16;95240.72;6226282;28;109313;-62
2023/09/23 04:50:24;;;;;;;20.90;17.40;;;;;;;24.05;49.31;95251.72;6238099;27;111198;-62
2023/09/23 04:53:28;;;;;;;15.80;11.68;;;;;;;24.02;49.03;95246.97;6235328;27;109068;-62
2023/09/23 04:56:31;;;;;;;14.70;10.20;;;;;;;23.97;49.06;95244.44;6235795;28;109528;-62
2023/09/23 04:59:36;;;;;;;15.68;8.93;;;;;;;23.77;49.09;95246.59;6225406;27;109259;-61
2023/09/23 05:02:41;;;;;;;14.95;9.60;;;;;;;23.96;49.37;95253.56;6232673;28;109662;-62
2023/09/23 05:05:44;;;;;;;17.85;9.95;;;;;;;24.02;49.42;95258.47;6243147;27;109585;-62
2023/09/23 05:08:48;;;;;;;15.18;8.90;;;;;;;23.88;49.00;95263.94;6239582;27;108775;-62
2023/09/23 05:11:52;;;;;;;15.07;8.40;;;;;;;23.65;49.51;95261.66;6225348;28;110083;-61
2023/09/23 05:14:57;;;;;;;15.30;8.20;;;;;;;23.44;50.03;95258.75;6224020;27;110737;-61
2023/09/23 05:18:00;;;;;;;16.10;8.20;;;;;;;23.60;50.05;95254.56;6231768;28;110256;-59
2023/09/23 05:21:04;;;;;;;12.45;8.02;;;;;;;23.74;49.41;95247.22;6215355;28;109459;-59
2023/09/23 05:24:10;;;;;;;11.13;7.57;;;;;;;23.91;49.12;95251.81;6214737;27;109150;-60
2023/09/23 05:27:13;;;;;;;14.32;7.00;;;;;;;23.98;48.92;95260.16;6233913;28;109145;-59
2023/09/23 05:30:17;;;;;;;16.15;7.80;;;;;;;24.06;49.09;95258.66;6225532;27;109159;-60
2023/09/23 05:33:21;;;;;;;13.77;6.63;;;;;;;24.01;48.98;95258.78;6224858;27;110169;-61
2023/09/23 05:36:25;;;;;;;15.97;7.20;;;;;;;24.03;48.74;95261.94;6231018;27;109355;-61
2023/09/23 05:39:28;;;;;;;17.52;7.50;;;;;;;23.98;48.82;95259.38;6224150;27;109602;-65
2023/09/23 05:42:32;;;;;;;17.35;7.30;;;;;;;23.09;50.17;95263.91;6234873;28;109076;-65
2023/09/23 05:45:37;;;;;;;11.85;7.05;;;;;;;22.73;51.84;95268.56;6234463;27;110251;-64
2023/09/23 05:48:40;;;;;;;16.73;7.50;;;;;;;22.47;52.74;95268.34;6234482;27;108929;-64
2023/09/23 05:51:44;;;;;;;12.68;7.32;;;;;;;22.58;53.16;95272.38;6234592;28;110311;-64
2023/09/23 05:54:48;;;;;;;11.73;7.20;;;;;;;23.04;52.05;95272.06;6231971;27;109904;-65
2023/09/23 05:57:51;;;;;;;16.88;7.68;;;;;;;22.75;52.79;95272.50;6223746;28;110256;-64
2023/09/23 06:00:55;;;;;;;13.63;7.47;;;;;;;23.19;51.88;95279.69;6229340;27;109364;-65
2023/09/23 06:03:59;;;;;;;13.40;7.75;;;;;;;22.95;52.96;95268.53;6235040;27;109434;-64
2023/09/23 06:07:02;;;;;;;14.17;7.70;;;;;;;22.77;53.59;95270.31;6227839;28;109319;-65
2023/09/23 06:10:06;;;;;;;13.90;7.40;;;;;;;22.74;54.34;95272.81;6227859;27;109046;-64
2023/09/23 06:13:10;;;;;;;15.60;7.82;;;;;;;22.81;54.45;95278.50;6232318;28;109236;-65
2023/09/23 06:16:16;;;;;;;20.02;8.70;;;;;;;23.11;54.08;95285.75;6234030;27;109283;-64
2023/09/23 06:19:19;;;;;;;15.00;8.70;;;;;;;22.91;54.98;95288.94;6222643;27;109276;-64
2023/09/23 06:22:23;;;;;;;15.27;8.20;;;;;;;22.84;54.69;95281.34;6234035;28;109519;-66
2023/09/23 06:25:26;;;;;;;14.85;8.40;;;;;;;23.40;52.77;95289.84;6229670;27;110174;-65
2023/09/23 06:28:30;;;;;;;10.98;6.90;;;;;;;23.92;51.56;95288.16;6233247;28;109441;-66
2023/09/23 06:31:34;;;;;;;16.87;8.50;;;;;;;24.04;52.14;95284.91;6206840;28;109196;-66
2023/09/23 06:34:38;;;;;;;14.77;8.05;;;;;;;24.23;51.54;95293.44;6242147;27;109048;-68
2023/09/23 06:37:41;;;;;;;14.25;7.88;;;;;;;24.21;51.24;95290.28;6254095;27;108866;-67
2023/09/23 06:40:44;;;;;;;16.23;7.55;;;;;;;24.26;51.39;95294.69;6237207;27;109732;-65
2023/09/23 06:43:47;;;;;;;15.93;7.82;;;;;;;24.37;51.50;95299.41;6221854;27;109055;-66
2023/09/23 06:46:52;;;;;;;17.02;8.10;;;;;;;24.43;51.32;95295.47;6229922;27;109090;-66
2023/09/23 06:49:55;;;;;;;12.90;7.85;;;;;;;24.36;51.09;95297.84;6229375;27;109252;-67
2023/09/23 06:52:59;;;;;;;14.00;6.97;;;;;;;24.58;50.96;95306.81;6207923;28;110263;-69
2023/09/23 06:56:02;;;;;;;12.07;6.80;;;;;;;24.81;50.34;95304.78;6240344;27;109383;-70
2023/09/23 06:59:05;;;;;;;12.07;6.83;;;;;;;25.01;49.91;95306.78;6217718;27;109237;-69
2023/09/23 07:02:10;;;;;;;10.40;7.20;;;;;;;25.16;49.65;95306.28;6235810;27;109032;-69
2023/09/23 07:05:13;;;;;;;15.90;6.87;;;;;;;25.22;49.65;95309.63;6224375;27;109855;-73
2023/09/23 07:08:16;;;;;;;12.00;8.20;;;;;;;25.20;49.77;95306.44;6233457;27;109513;-74
2023/09/23 07:11:20;;;;;;;11.93;7.45;;;;;;;25.15;50.32;95309.28;6232353;28;109389;-74
2023/09/23 07:14:23;;;;;;;12.85;7.20;;;;;;;25.05;50.35;95303.19;6233271;27;109073;-70
2023/09/23 07:17:28;;;;;;;11.07;6.93;;;;;;;25.27;49.49;95312.09;6221575;27;109024;-69
2023/09/23 07:20:32;;;;;;;12.15;6.85;;;;;;;25.42;49.41;95310.84;6233989;28;110124;-70
2023/09/23 07:23:35;;;;;;;11.60;6.93;;;;;;;25.61;49.55;95311.25;6232581;27;110090;-67
2023/09/23 07:26:39;;;;;;;14.65;7.20;;;;;;;25.74;48.76;95304.88;6209400;28;110233;-67
2023/09/23 07:29:42;;;;;;;14.43;7.10;;;;;;;25.85;48.37;95307.97;6227370;27;110212;-67
2023/09/23 07:32:46;;;;;;;12.53;6.70;;;;;;;25.95;48.55;95307.59;6230795;27;109678;-67
2023/09/23 07:35:49;;;;;;;10.50;6.10;;;;;;;26.04;48.16;95307.56;6225952;28;109277;-66
2023/09/23 07:38:52;;;;;;;12.27;6.70;;;;;;;26.07;48.31;95307.75;6207006;27;109850;-69
2023/09/23 07:41:55;;;;;;;11.63;6.35;;;;;;;26.03;48.33;95300.63;6212770;27;110101;-67
2023/09/23 07:44:58;;;;;;;10.65;6.63;;;;;;;26.01;48.50;95298.28;6232119;28;110251;-67
2023/09/23 07:48:03;;;;;;;11.82;7.40;;;;;;;26.03;48.53;95296.06;6223295;27;109155;-69
2023/09/23 07:51:08;;;;;;;13.00;7.32;;;;;;;25.87;48.95;95293.13;6214045;27;109083;-66
2023/09/23 07:54:11;;;;;;;23.17;8.30;;;;;;;25.90;48.49;95289.81;6222659;27;109424;-67
2023/09/23 07:57:14;;;;;;;21.47;7.80;;;;;;;25.76;49.41;95308.03;6230660;27;109512;-67
2023/09/23 08:00:19;;;;;;;17.13;7.27;;;;;;;25.52;49.77;95299.75;6231984;28;110201;-63
2023/09/23 08:03:26;;;;;;;19.50;8.40;;;;;;;25.48;49.44;95291.56;6231298;27;109553;-67
2023/09/23 08:06:30;;;;;;;15.68;7.40;;;;;;;25.63;48.82;95299.09;6236621;28;111807;-66
2023/09/23 08:09:33;;;;;;;12.20;7.72;;;;;;;25.71;48.40;95294.00;6236216;27;110579;-67
2023/09/23 08:12:36;;;;;;;15.82;8.05;;;;;;;25.62;49.07;95292.16;6224139;27;109213;-68
2023/09/23 08:15:39;;;;;;;14.90;8.20;;;;;;;25.29;49.13;95283.91;6236095;28;109253;-66
2023/09/23 08:18:43;;;;;;;15.83;8.03;;;;;;;25.14;49.47;95287.09;6235959;27;111921;-68
2023/09/23 08:21:47;;;;;;;14.30;8.15;;;;;;;25.09;49.81;95281.91;6236475;28;110167;-67
2023/09/23 08:24:50;;;;;;;13.90;8.38;;;;;;;25.31;49.51;95286.25;6225318;27;109638;-68
2023/09/23 08:27:53;;;;;;;14.85;7.97;;;;;;;25.84;48.48;95276.91;6236081;27;109317;-69
2023/09/23 08:30:57;;;;;;;10.63;7.40;;;;;;;26.11;47.42;95273.78;6234825;28;109183;-69
2023/09/23 08:34:04;;;;;;;12.07;7.45;;;;;;;26.32;46.80;95279.16;6220817;27;110194;-69
2023/09/23 08:37:07;;;;;;;11.13;7.90;;;;;;;26.43;46.61;95277.66;6223616;28;109942;-69
2023/09/23 08:40:11;;;;;;;13.02;7.70;;;;;;;26.52;47.03;95274.88;6236220;27;110290;-70
2023/09/23 08:43:18;;;;;;;14.48;7.60;;;;;;;26.58;46.84;95274.38;6235473;27;109050;-65
2023/09/23 08:46:24;;;;;;;10.73;7.00;;;;;;;26.64;46.70;95266.94;6230539;28;110208;-64
2023/09/23 08:49:30;;;;;;;11.00;7.10;;;;;;;26.72;45.75;95273.34;6233799;27;109239;-67
2023/09/23 08:52:34;;;;;;;12.97;7.40;;;;;;;26.77;45.58;95265.88;6235212;27;109075;-66
2023/09/23 08:55:37;;;;;;;11.68;7.30;;;;;;;26.79;45.77;95263.63;6233152;28;109607;-66
2023/09/23 08:58:42;;;;;;;14.32;7.30;;;;;;;26.84;45.74;95263.41;6224887;28;109361;-65
2023/09/23 09:01:45;;;;;;;14.25;7.60;;;;;;;26.84;45.05;95254.56;6234096;28;109196;-65
2023/09/23 09:04:52;;;;;;;12.38;7.30;;;;;;;26.85;44.97;95256.94;6234302;27;110144;-66
2023/09/23 09:07:58;;;;;;;10.45;7.18;;;;;;;26.79;45.52;95258.25;6235510;27;109385;-66
2023/09/23 09:11:01;;;;;;;10.77;7.60;;;;;;;26.71;46.29;95255.66;6223588;27;109185;-66
2023/09/23 09:14:05;;;;;;;11.70;7.60;;;;;;;26.69;46.16;95247.13;6234197;27;109340;-64
2023/09/23 09:17:09;;;;;;;15.80;8.60;;;;;;;26.09;46.86;95249.19;6235251;28;110524;-65
2023/09/23 09:20:14;;;;;;;22.05;9.40;;;;;;;25.71;46.99;95241.19;6225091;27;109090;-65
2023/09/23 09:23:18;;;;;;;15.53;8.33;;;;;;;25.73;46.78;95240.88;6228958;27;109465;-66
2023/09/23 09:26:22;;;;;;;13.37;7.80;;;;;;;26.09;45.66;95237.66;6234514;28;109239;-66
2023/09/23 09:29:25;;;;;;;16.45;7.90;;;;;;;26.40;45.37;95234.59;6235448;27;109379;-66
2023/09/23 09:32:30;;;;;;;13.45;7.65;;;;;;;26.59;44.66;95232.22;6224237;28;111544;-66
2023/09/23 09:35:35;;;;;;;14.07;7.80;;;;;;;26.65;45.08;95233.59;6236169;27;109045;-65
2023/09/23 09:38:39;;;;;;;16.03;7.67;;;;;;;26.66;45.00;95229.78;6243220;27;109173;-66
2023/09/23 09:41:48;;;;;;;16.48;8.05;;;;;;;26.76;44.94;95225.94;6234258;28;108987;-66
2023/09/23 09:44:54;;;;;;;15.43;7.80;;;;;;;26.84;44.78;95216.97;6220415;27;109332;-64
2023/09/23 09:48:00;;;;;;;17.10;7.88;;;;;;;26.84;45.35;95217.75;6230523;27;110129;-66
2023/09/23 09:51:06;;;;;;;14.95;7.18;;;;;;;26.87;45.44;95216.31;6233232;28;109149;-66
2023/09/23 09:54:11;;;;;;;13.35;7.13;;;;;;;26.92;44.79;95212.66;6222283;27;110161;-59
2023/09/23 09:57:14;;;;;;;12.23;7.63;;;;;;;26.96;45.14;95208.97;6228522;28;109217;-59
2023/09/23 10:00:27;;;;;;;11.75;7.25;;;;;;;26.97;45.42;95199.78;6233804;27;109157;-59
2023/09/23 10:03:31;;;;;;;11.07;7.30;;;;;;;26.95;44.89;95206.63;6233975;27;109435;-59
2023/09/23 10:06:41;;;;;;;11.00;6.50;;;;;;;26.92;45.52;95191.94;6223573;27;109412;-60
2023/09/23 10:09:53;;;;;;;10.60;6.72;;;;;;;26.86;44.96;95190.56;6233854;27;109249;-60
2023/09/23 10:12:58;;;;;;;11.98;7.45;;;;;;;26.87;45.62;95192.94;6234272;27;109207;-61
2023/09/23 10:16:05;;;;;;;11.83;6.83;;;;;;;26.87;45.79;95181.41;6234154;27;109067;-60
2023/09/23 10:19:11;;;;;;;9.77;6.97;;;;;;;26.90;45.21;95177.28;6222205;27;109245;-60
2023/09/23 10:22:20;;;;;;;11.68;6.75;;;;;;;26.86;45.47;95167.19;6231322;28;109172;-60
2023/09/23 10:25:23;;;;;;;11.73;6.78;;;;;;;26.83;45.69;95157.13;6233646;27;109139;-60
2023/09/23 10:28:28;;;;;;;10.07;6.65;;;;;;;26.82;46.24;95160.94;6227222;27;109311;-60
2023/09/23 10:31:33;;;;;;;12.93;7.60;;;;;;;26.36;46.97;95153.16;6228866;27;110074;-61
2023/09/23 10:34:45;;;;;;;14.10;7.75;;;;;;;26.72;45.83;95147.94;6233742;27;109208;-61
2023/09/23 10:37:50;;;;;;;14.53;7.10;;;;;;;26.93;44.66;95149.75;6233972;28;109109;-59
2023/09/23 10:40:54;;;;;;;13.52;7.18;;;;;;;26.82;44.96;95144.81;6222928;27;109252;-62
2023/09/23 10:43:57;;;;;;;10.93;7.00;;;;;;;26.94;45.06;95144.06;6225104;27;109261;-62
2023/09/23 10:47:00;;;;;;;17.95;10.90;;;;;;;27.02;44.43;95147.75;6259054;27;110293;-62
2023/09/23 10:50:05;;;;;;;18.45;10.02;;;;;;;27.05;44.54;95126.38;6238013;27;109259;-60
2023/09/23 10:53:09;;;;;;;17.43;10.00;;;;;;;26.98;45.20;95136.09;6224901;27;110356;-59
2023/09/23 10:56:13;;;;;;;15.85;10.27;;;;;;;26.92;45.16;95122.13;6216401;28;109634;-60
2023/09/23 10:59:16;;;;;;;13.85;9.80;;;;;;;26.86;45.01;95132.28;6233857;27;109292;-59
2023/09/23 11:02:20;;;;;;;13.00;9.70;;;;;;;26.89;45.33;95127.38;6228868;28;110631;-60
2023/09/23 11:05:24;;;;;;;12.82;8.90;;;;;;;26.85;45.80;95109.22;6227124;27;109069;-58
2023/09/23 11:08:29;;;;;;;14.32;8.93;;;;;;;26.82;46.11;95112.59;6234339;27;109042;-59
2023/09/23 11:11:34;;;;;;;14.05;9.20;;;;;;;26.79;46.21;95097.16;6242550;27;109175;-60
2023/09/23 11:14:38;;;;;;;12.48;8.85;;;;;;;26.72;46.29;95098.84;6209123;27;109025;-59
2023/09/23 11:17:42;;;;;;;13.48;8.73;;;;;;;26.64;45.84;95092.44;6232494;28;109231;-60
2023/09/23 11:20:47;;;;;;;14.35;8.93;;;;;;;26.64;46.40;95083.59;6232535;27;109214;-59
2023/09/23 11:23:57;;;;;;;11.33;7.93;;;;;;;26.61;45.92;95074.28;6233063;27;109315;-59
2023/09/23 11:27:07;;;;;;;11.95;8.30;;;;;;;26.61;46.39;95073.50;6220954;27;110283;-61
2023/09/23 11:30:11;;;;;;;14.20;8.02;;;;;;;26.62;46.27;95075.06;6233358;27;110154;-61
2023/09/23 11:33:14;;;;;;;10.80;7.50;;;;;;;26.60;46.33;95066.56;6231603;27;109369;-58
2023/09/23 11:36:17;;;;;;;11.07;7.30;;;;;;;26.54;45.88;95060.63;6242573;27;109391;-60
2023/09/23 11:39:21;;;;;;;12.27;7.80;;;;;;;26.55;46.11;95070.25;6227608;27;109081;-58
2023/09/23 11:42:25;;;;;;;9.85;7.25;;;;;;;26.53;46.19;95057.16;6233152;28;109157;-58
2023/09/23 11:45:28;;;;;;;12.35;7.65;;;;;;;26.53;46.04;95046.41;6245969;27;109013;-59
2023/09/23 11:48:31;;;;;;;10.88;7.10;;;;;;;26.53;45.54;95046.41;6221685;28;110243;-59
2023/09/23 11:51:35;;;;;;;11.73;7.40;;;;;;;26.51;45.49;95043.28;6232404;28;109560;-59
2023/09/23 11:54:40;;;;;;;12.10;7.30;;;;;;;26.53;45.79;95042.94;6239445;27;109171;-59
2023/09/23 11:57:44;;;;;;;11.03;6.60;;;;;;;26.49;45.41;95034.00;6232624;28;110115;-59
2023/09/23 12:00:47;;;;;;;10.87;7.20;;;;;;;26.48;45.39;95040.50;6222945;27;109638;-59
2023/09/23 12:03:51;;;;;;;11.32;6.38;;;;;;;26.44;45.78;95031.53;6230789;27;108830;-59
2023/09/23 12:06:55;;;;;;;11.13;6.20;;;;;;;26.41;45.79;95034.91;6253188;27;109668;-59
2023/09/23 12:09:59;;;;;;;11.60;6.40;;;;;;;26.41;44.86;95022.25;6232371;27;109345;-58
2023/09/23 12:13:05;;;;;;;9.65;6.18;;;;;;;26.40;44.99;95025.28;6222383;28;110055;-59
2023/09/23 12:16:08;;;;;;;11.63;6.70;;;;;;;26.36;44.89;95016.31;6230671;27;110258;-66
2023/09/23 12:19:11;;;;;;;14.53;6.70;;;;;;;26.41;43.89;95016.13;6225459;27;109430;-67
2023/09/23 12:22:15;;;;;;;13.50;6.57;;;;;;;26.43;44.34;95014.66;6225659;27;109106;-66
2023/09/23 12:25:20;;;;;;;11.93;6.63;;;;;;;26.43;43.21;95013.88;6229167;28;109153;-68
2023/09/23 12:28:23;;;;;;;20.00;7.70;;;;;;;26.40;43.42;95006.50;6232431;28;109387;-68
2023/09/23 12:31:26;;;;;;;14.90;6.70;;;;;;;26.41;43.43;95005.38;6229624;27;108995;-66
2023/09/23 12:34:30;;;;;;;18.10;6.60;;;;;;;26.58;40.88;95000.59;6221840;27;109270;-67
2023/09/23 12:37:34;;;;;;;19.25;6.75;;;;;;;26.66;39.84;94996.22;6240534;27;108937;-67
2023/09/23 12:40:38;;;;;;;13.40;5.90;;;;;;;26.65;40.74;95002.72;6231606;28;109235;-66
2023/09/23 12:43:41;;;;;;;15.98;6.35;;;;;;;26.63;40.78;94996.09;6226618;27;109232;-68
2023/09/23 12:46:45;;;;;;;17.33;6.10;;;;;;;26.58;41.94;94989.84;6227044;27;109621;-66
2023/09/23 12:49:49;;;;;;;18.00;6.22;;;;;;;26.54;41.50;94988.94;6234486;28;109257;-67
2023/09/23 12:52:53;;;;;;;17.55;6.45;;;;;;;26.54;40.79;94980.09;6236217;27;110060;-67
2023/09/23 12:55:58;;;;;;;12.93;6.30;;;;;;;26.52;41.42;94980.44;6229050;28;109196;-66
2023/09/23 12:59:01;;;;;;;15.00;6.70;;;;;;;26.49;40.91;94980.31;6228164;27;109139;-67
2023/09/23 13:02:04;;;;;;;17.07;6.60;;;;;;;26.45;42.18;94979.44;6240202;27;109124;-67
2023/09/23 13:05:08;;;;;;;16.38;6.80;;;;;;;26.43;41.73;94974.41;6241297;27;108911;-67
2023/09/23 13:08:12;;;;;;;16.42;5.93;;;;;;;26.47;40.80;94967.25;6225401;27;109108;-67
2023/09/23 13:11:16;;;;;;;13.95;5.88;;;;;;;26.54;40.21;94974.72;6235585;28;109559;-67
2023/09/23 13:14:21;;;;;;;16.77;6.63;;;;;;;26.58;40.83;94975.63;6236136;27;109140;-67
2023/09/23 13:17:24;;;;;;;17.63;6.37;;;;;;;26.51;39.25;94970.81;6235053;27;109350;-67
2023/09/23 13:20:28;;;;;;;16.40;6.17;;;;;;;26.61;39.30;94972.28;6207145;28;109907;-67
2023/09/23 13:23:31;;;;;;;14.90;6.13;;;;;;;26.53;40.73;94970.47;6229388;27;110481;-69
2023/09/23 13:26:36;;;;;;;20.65;7.00;;;;;;;26.50;40.09;94960.41;6224988;28;109082;-69
2023/09/23 13:29:39;;;;;;;24.63;7.70;;;;;;;26.50;40.00;94957.72;6211329;28;110445;-68
2023/09/23 13:32:42;;;;;;;41.55;9.40;;;;;;;26.51;38.90;94953.94;6215151;28;109144;-70
2023/09/23 13:35:47;;;;;;;32.10;9.00;;;;;;;26.57;39.25;94949.91;6216378;28;109061;-68
2023/09/23 13:38:51;;;;;;;29.05;8.80;;;;;;;26.49;39.71;94958.84;6234439;27;109099;-70
2023/09/23 13:41:56;;;;;;;28.65;8.52;;;;;;;26.43;40.05;94949.47;6224913;27;110317;-67
2023/09/23 13:44:59;;;;;;;28.30;9.60;;;;;;;26.50;40.59;94938.94;6222991;28;109602;-69
2023/09/23 13:48:05;;;;;;;20.60;8.80;;;;;;;26.56;39.87;94937.63;6231570;27;109160;-67
2023/09/23 13:51:08;;;;;;;22.08;8.98;;;;;;;26.60;41.57;94940.41;6233854;28;109054;-68
2023/09/23 13:54:12;;;;;;;21.75;8.05;;;;;;;26.68;38.11;94940.31;6231996;27;109279;-69
2023/09/23 13:57:16;;;;;;;22.10;8.82;;;;;;;26.63;40.03;94937.03;6232804;27;109343;-69
2023/09/23 14:00:19;;;;;;;22.90;9.20;;;;;;;26.61;39.38;94939.28;6233330;28;109070;-67
2023/09/23 14:03:22;;;;;;;22.33;8.63;;;;;;;26.60;38.71;94932.34;6219308;27;109301;-68
2023/09/23 14:06:25;;;;;;;21.37;8.23;;;;;;;26.68;39.58;94929.56;6198485;28;109597;-69